Aérodrome :
LOGIN :

S'inscrire | Disclaimer

   EN    FR    IT 

 










Légende :    VFR   VFR Marginal   IFR   IFR Intensif   IFR Très Intensif
Visi : 
Plafond : 
>= 8 km
>= 3000ft
5 à 8 km
1000 à 3000 ft
1500m à 5 km
500 à 1000 ft
800 à 1500m
200 à 500 ft
< 800m
< 200 ft
Symboles :   Orages  Brouillard  Fortes neiges  Fortes précipitations  Vent > 20 kt
SIGMETs :   Divers  Orages  Givrage  Turbulence  Onde Orograph.  Cendres Volcan.






- Altitude de l'aérodrome : 247 ft
- Code IATA : BLL


EKBI - Billund

DERNIER METAR :
  • 071820Z AUTO 24008KT 9999 SCT052/// BKN130/// 05/04 Q1004

METARs EXPIRÉS :
  • 071750Z AUTO 23007KT 9999 BKN150/// 05/04 Q1004
  • 071720Z AUTO 25008KT 9999 BKN160/// 05/04 Q1003
  • 071650Z AUTO 25010KT 9999 FEW200/// 05/04 Q1003
  • 071620Z AUTO 25008KT 9999 NCD 05/04 Q1003
  • 071550Z AUTO 26008KT 9999 FEW021/// 05/04 Q1003

TAF TAF EKBI
Valide du 07 à 18h jusqu'au 08 à 18h UTC


071707Z 0718/0818 25010KT 9999 SCT020
TEMPO 0721/0801 -RA BKN012
BECMG 0801/0803 22020KT 3000 RADZ BR BKN006
TEMPO 0803/0810 23025G35KT 6000 NSW BKN012
BECMG 0810/0812 26015KT 9999 NSW BKN020
TEMPO 0815/0818 24015G25KT SHRA BKN012 BKN020CB
PROB40
TEMPO 0816/0818 TSRAGS



MET'MAP, la Météo Aéronautique d'un coup d'oeil ! - Copyright ORBIFLY Décembre 2007 - Disclaimer

ORBIFLY MET'MAP TEAM :

Programmation & Développement : Alexandra Zaïnal
Sur une idée originale de : Baudouin d'Aumeries
Assistance à la programmation : Marc-Olivier Méhu
Soutien technique & logistique : Manuel Goepfert

Contact : metmap@orbifly.com




SOURCES & CREDITS :

   NOAA